createdAt,value
2019-05-12T00:01:52.827Z,73.47
2019-05-12T00:04:19.532Z,73.70
2019-05-12T00:06:47.863Z,74.32
2019-05-12T00:09:20.840Z,73.99
2019-05-12T00:11:48.427Z,74.29
2019-05-12T00:14:28.118Z,74.17
2019-05-12T00:17:01.006Z,73.92
2019-05-12T00:19:28.530Z,73.79
2019-05-12T00:22:02.771Z,74.53
2019-05-12T00:24:29.409Z,74.50
2019-05-12T00:29:51.068Z,74.45
2019-05-12T00:32:18.038Z,74.49
2019-05-12T00:34:52.233Z,74.56
2019-05-12T00:37:18.855Z,74.59
2019-05-12T00:39:47.762Z,75.01
2019-05-12T00:42:20.886Z,75.28
2019-05-12T00:44:47.885Z,75.80
2019-05-12T00:47:22.851Z,75.64
2019-05-12T00:49:50.370Z,75.89
2019-05-12T00:52:23.990Z,76.32
2019-05-12T00:54:50.609Z,76.73
2019-05-12T00:57:18.177Z,76.55
2019-05-12T00:59:51.956Z,77.07
2019-05-12T01:02:18.581Z,77.33
2019-05-12T01:04:45.227Z,77.64
2019-05-12T01:10:08.460Z,77.73
2019-05-12T01:12:44.900Z,78.17
2019-05-12T01:15:11.540Z,78.35
2019-05-12T01:17:40.382Z,78.58
2019-05-12T01:20:12.806Z,78.17
2019-05-12T01:22:39.433Z,78.65
2019-05-12T01:25:08.337Z,79.10
2019-05-12T01:27:41.344Z,79.23
2019-05-12T01:30:20.525Z,79.09
2019-05-12T01:32:48.369Z,79.36
2019-05-12T01:35:21.905Z,79.41
2019-05-12T01:37:48.530Z,79.35
2019-05-12T01:40:15.143Z,79.64
2019-05-12T01:42:41.969Z,80.18
2019-05-12T01:45:09.209Z,79.47
2019-05-12T01:47:48.574Z,79.88
2019-05-12T01:50:21.865Z,79.69
2019-05-12T01:52:48.475Z,79.70
2019-05-12T01:55:15.134Z,80.04
2019-05-12T01:57:41.830Z,80.19
2019-05-12T02:00:09.253Z,80.23
2019-05-12T02:02:35.892Z,80.15
2019-05-12T02:05:22.416Z,80.51
2019-05-12T02:08:09.710Z,80.84
2019-05-12T02:10:38.758Z,80.95
2019-05-12T02:13:11.677Z,80.74
2019-05-12T02:15:38.576Z,80.51
2019-05-12T02:18:17.835Z,81.04
2019-05-12T02:20:51.520Z,81.10
2019-05-12T02:23:18.146Z,80.43
2019-05-12T02:25:44.890Z,80.70
2019-05-12T02:28:11.579Z,80.92
2019-05-12T02:30:41.382Z,80.61
2019-05-12T02:33:15.810Z,80.80
2019-05-12T02:35:47.868Z,81.05
2019-05-12T02:38:14.720Z,80.77
2019-05-12T02:40:44.686Z,80.95
2019-05-12T02:43:16.885Z,80.98
2019-05-12T02:45:44.698Z,80.93
2019-05-12T02:48:24.547Z,80.90
2019-05-12T02:50:56.890Z,81.21
2019-05-12T02:53:24.874Z,81.25
2019-05-12T02:56:04.770Z,81.41
2019-05-12T02:58:36.921Z,81.48
2019-05-12T03:01:05.502Z,81.20
2019-05-12T03:03:44.118Z,81.50
2019-05-12T03:06:20.124Z,81.81
2019-05-12T03:08:46.749Z,82.03
2019-05-12T03:11:14.775Z,81.87
2019-05-12T03:13:48.185Z,81.79
2019-05-12T03:16:15.205Z,81.62
2019-05-12T03:18:55.276Z,81.77
2019-05-12T03:21:28.306Z,81.75
2019-05-12T03:23:55.293Z,82.01
2019-05-12T03:26:34.701Z,82.19
2019-05-12T03:29:08.257Z,81.97
2019-05-12T03:31:39.876Z,82.07
2019-05-12T03:34:11.394Z,82.27
2019-05-12T03:36:50.633Z,82.02
2019-05-12T03:39:20.066Z,82.03
2019-05-12T03:41:46.681Z,82.07
2019-05-12T03:44:15.002Z,82.04
2019-05-12T03:46:48.082Z,82.11
2019-05-12T03:49:15.585Z,82.01
2019-05-12T03:51:49.908Z,82.04
2019-05-12T03:54:16.620Z,82.14
2019-05-12T03:56:45.030Z,82.46
2019-05-12T03:59:17.896Z,82.32
2019-05-12T04:01:45.308Z,82.19
2019-05-12T04:04:19.719Z,82.17
2019-05-12T04:06:46.406Z,82.41
2019-05-12T04:09:15.492Z,82.12
2019-05-12T04:11:48.035Z,82.26
2019-05-12T04:14:15.149Z,82.07
2019-05-12T04:16:49.394Z,82.47
2019-05-12T04:19:16.009Z,82.10
2019-05-12T04:21:44.638Z,82.06
2019-05-12T04:24:17.770Z,81.95
2019-05-12T04:26:45.089Z,81.83
2019-05-12T04:29:19.761Z,81.91
2019-05-12T04:31:46.365Z,83.50
2019-05-12T04:34:15.658Z,83.14
2019-05-12T04:36:47.624Z,81.40
2019-05-12T04:39:14.882Z,82.78
2019-05-12T04:45:10.720Z,81.09
2019-05-12T04:47:37.317Z,79.77
2019-05-12T04:50:05.412Z,79.57
2019-05-12T04:52:38.718Z,79.11
2019-05-12T04:55:05.364Z,78.57
2019-05-12T04:57:34.624Z,80.02
2019-05-12T05:00:06.769Z,80.81
2019-05-12T05:02:36.372Z,79.96
2019-05-12T05:05:14.542Z,78.58
2019-05-12T05:07:46.852Z,79.05
2019-05-12T05:10:14.555Z,79.00
2019-05-12T05:12:54.236Z,79.74
2019-05-12T05:15:27.039Z,79.78
2019-05-12T05:17:54.476Z,79.96
2019-05-12T05:20:34.247Z,79.74
2019-05-12T05:23:10.114Z,80.53
2019-05-12T05:25:36.858Z,80.21
2019-05-12T05:28:03.991Z,80.31
2019-05-12T05:30:43.671Z,80.20
2019-05-12T05:33:19.793Z,79.40
2019-05-12T05:35:54.922Z,79.11
2019-05-12T05:38:23.576Z,80.19
2019-05-12T05:40:59.675Z,79.87
2019-05-12T05:43:33.216Z,80.14
2019-05-12T05:46:08.059Z,80.28
2019-05-12T05:48:40.383Z,80.34
2019-05-12T05:51:09.041Z,80.70
2019-05-12T05:53:49.886Z,80.98
2019-05-12T05:56:20.334Z,81.06
2019-05-12T05:58:51.634Z,81.01
2019-05-12T06:01:25.161Z,81.05
2019-05-12T06:03:53.243Z,80.76
2019-05-12T06:06:26.905Z,80.71
2019-05-12T06:09:14.121Z,81.07
2019-05-12T06:11:40.898Z,81.18
2019-05-12T06:14:11.320Z,81.19
2019-05-12T06:19:44.883Z,80.74
2019-05-12T06:22:15.083Z,80.82
2019-05-12T06:27:51.162Z,80.80
2019-05-12T06:30:24.290Z,80.74
2019-05-12T06:32:58.154Z,81.16
2019-05-12T06:35:24.857Z,81.45
2019-05-12T06:38:00.095Z,80.63
2019-05-12T06:40:45.708Z,81.08
2019-05-12T06:43:13.944Z,81.43
2019-05-12T06:45:47.020Z,80.98
2019-05-12T06:48:14.174Z,80.87
2019-05-12T06:50:48.929Z,80.87
2019-05-12T06:53:20.217Z,80.41
2019-05-12T06:55:54.124Z,80.35
2019-05-12T06:58:32.112Z,80.04
2019-05-12T07:01:10.178Z,80.31
2019-05-12T07:03:38.778Z,80.69
2019-05-12T07:06:09.090Z,80.57
2019-05-12T07:08:43.998Z,80.04
2019-05-12T07:11:10.702Z,80.66
2019-05-12T07:13:37.310Z,80.32
2019-05-12T07:16:29.766Z,80.25
2019-05-12T07:18:58.668Z,80.01
2019-05-12T07:21:27.270Z,80.60
2019-05-12T07:24:00.355Z,80.67
2019-05-12T07:26:34.842Z,79.33
2019-05-12T07:29:01.490Z,79.98
2019-05-12T07:34:07.814Z,80.47
2019-05-12T07:36:41.569Z,80.31
2019-05-12T07:39:08.649Z,80.10
2019-05-12T07:41:50.795Z,80.26
2019-05-12T07:44:24.972Z,80.42
2019-05-12T07:46:56.874Z,80.11
2019-05-12T07:49:34.462Z,80.47
2019-05-12T07:51:58.069Z,80.56
2019-05-12T07:54:29.317Z,80.33
2019-05-12T07:57:11.471Z,80.38
2019-05-12T07:59:43.670Z,80.79
2019-05-12T08:02:16.512Z,79.24
2019-05-12T08:04:44.029Z,79.54
2019-05-12T08:07:19.932Z,79.49
2019-05-12T08:09:53.708Z,79.60
2019-05-12T08:12:28.545Z,79.12
2019-05-12T08:14:59.325Z,79.06
2019-05-12T08:17:33.732Z,79.14
2019-05-12T08:20:00.514Z,79.09
2019-05-12T08:22:29.350Z,79.51
2019-05-12T08:25:04.039Z,78.45
2019-05-12T08:27:39.146Z,79.02
2019-05-12T08:30:13.894Z,78.85
2019-05-12T08:32:46.970Z,79.34
2019-05-12T08:35:14.053Z,78.92
2019-05-12T08:37:54.329Z,79.12
2019-05-12T08:40:27.151Z,78.69
2019-05-12T08:42:54.036Z,78.95
2019-05-12T08:45:25.702Z,79.12
2019-05-12T08:47:49.329Z,79.07
2019-05-12T08:50:15.971Z,78.96
2019-05-12T08:52:44.297Z,78.74
2019-05-12T08:55:13.814Z,78.38
2019-05-12T08:57:46.492Z,79.16
2019-05-12T09:00:08.858Z,79.20
2019-05-12T09:02:39.947Z,78.79
2019-05-12T09:05:04.764Z,78.89
2019-05-12T09:07:35.904Z,79.09
2019-05-12T09:10:00.279Z,79.06
2019-05-12T09:12:26.933Z,79.02
2019-05-12T09:14:54.574Z,79.25
2019-05-12T09:17:23.283Z,80.75
2019-05-12T09:19:54.966Z,81.27
2019-05-12T09:22:20.965Z,79.15
2019-05-12T09:24:47.014Z,79.75
2019-05-12T09:27:13.681Z,79.12
2019-05-12T09:29:40.396Z,79.01
2019-05-12T09:32:09.452Z,78.86
2019-05-12T09:34:35.666Z,79.65
2019-05-12T09:37:04.062Z,79.66
2019-05-12T09:39:34.064Z,80.17
2019-05-12T09:41:59.406Z,80.24
2019-05-12T09:44:30.284Z,79.33
2019-05-12T09:46:54.585Z,78.93
2019-05-12T09:49:22.778Z,78.98
2019-05-12T09:51:49.776Z,79.59
2019-05-12T09:54:16.419Z,78.85
2019-05-12T09:56:44.180Z,79.15
2019-05-12T09:59:19.067Z,79.39
2019-05-12T10:01:40.658Z,79.38
2019-05-12T10:04:10.344Z,79.00
2019-05-12T10:06:36.749Z,78.67
2019-05-12T10:09:08.910Z,79.02
2019-05-12T10:11:33.779Z,78.89
2019-05-12T10:14:05.685Z,78.66
2019-05-12T10:16:28.947Z,78.08
2019-05-12T10:18:55.698Z,79.00
2019-05-12T10:21:23.767Z,78.84
2019-05-12T10:23:51.524Z,77.77
2019-05-12T10:26:19.188Z,78.77
2019-05-12T10:28:51.950Z,78.77
2019-05-12T10:31:14.497Z,78.58
2019-05-12T10:33:43.147Z,78.49
2019-05-12T10:36:09.728Z,78.69
2019-05-12T10:38:36.373Z,78.50
2019-05-12T10:41:04.270Z,78.65
2019-05-12T10:43:31.247Z,79.15
2019-05-12T10:45:57.878Z,79.17
2019-05-12T10:48:24.620Z,79.02
2019-05-12T10:50:53.426Z,79.02
2019-05-12T10:53:19.910Z,79.46
2019-05-12T10:55:46.531Z,79.26
2019-05-12T10:58:14.516Z,79.32
2019-05-12T11:00:41.523Z,78.81
2019-05-12T11:03:12.123Z,79.38
2019-05-12T11:05:36.797Z,79.42
2019-05-12T11:08:11.003Z,79.16
2019-05-12T11:10:31.963Z,79.61
2019-05-12T11:12:59.222Z,79.41
2019-05-12T11:15:27.165Z,79.45
2019-05-12T11:18:11.431Z,78.60
2019-05-12T11:20:38.112Z,79.45
2019-05-12T11:23:04.818Z,79.01
2019-05-12T11:25:33.741Z,79.13
2019-05-12T11:27:59.981Z,79.14
2019-05-12T11:30:26.719Z,78.97
2019-05-12T11:32:54.208Z,78.99
2019-05-12T11:35:21.038Z,78.79
2019-05-12T11:37:47.799Z,79.49
2019-05-12T11:40:14.547Z,78.88
2019-05-12T11:42:46.836Z,78.82
2019-05-12T11:45:09.800Z,79.52
2019-05-12T11:47:37.355Z,79.03
2019-05-12T11:50:09.528Z,80.19
2019-05-12T11:52:33.392Z,79.87
2019-05-12T11:55:00.216Z,79.09
2019-05-12T11:57:30.296Z,79.42
2019-05-12T12:00:02.069Z,79.17
2019-05-12T12:02:26.371Z,79.46
2019-05-12T12:04:54.362Z,78.78
2019-05-12T12:07:21.262Z,79.17
2019-05-12T12:09:49.381Z,78.80
2019-05-12T12:12:16.566Z,78.80
2019-05-12T12:14:46.247Z,78.59
2019-05-12T12:17:13.552Z,79.09
2019-05-12T12:19:44.601Z,78.85
2019-05-12T12:22:08.870Z,78.40
2019-05-12T12:24:38.203Z,78.93
2019-05-12T12:27:04.042Z,78.10
2019-05-12T12:29:30.766Z,78.38
2019-05-12T12:32:00.502Z,77.96
2019-05-12T12:34:30.093Z,77.75
2019-05-12T12:36:55.774Z,77.86
2019-05-12T12:39:23.792Z,77.82
2019-05-12T12:41:58.370Z,76.18
2019-05-12T12:44:19.206Z,77.39
2019-05-12T12:46:45.884Z,78.14
2019-05-12T12:49:13.951Z,77.78
2019-05-12T12:51:40.762Z,77.80
2019-05-12T12:54:07.408Z,77.18
2019-05-12T12:56:34.179Z,77.99
2019-05-12T12:59:01.873Z,77.41
2019-05-12T13:01:32.675Z,77.11
2019-05-12T13:03:59.392Z,77.21
2019-05-12T13:06:28.533Z,76.42
2019-05-12T13:08:55.244Z,76.71
2019-05-12T13:11:32.869Z,76.59
2019-05-12T13:13:50.684Z,76.60
2019-05-12T13:16:17.430Z,76.78
2019-05-12T13:18:44.153Z,76.29
2019-05-12T13:21:10.797Z,76.79
2019-05-12T13:23:40.935Z,76.54
2019-05-12T13:26:06.030Z,76.79
2019-05-12T13:28:34.285Z,77.10
2019-05-12T13:31:09.149Z,76.30
2019-05-12T13:33:29.648Z,76.56
2019-05-12T13:35:57.559Z,75.62
2019-05-12T13:38:24.386Z,76.29
2019-05-12T13:40:51.067Z,77.04
2019-05-12T13:43:19.694Z,76.82
2019-05-12T13:45:46.374Z,77.77
2019-05-12T13:48:15.800Z,77.62
2019-05-12T13:50:43.297Z,77.83
2019-05-12T13:53:10.428Z,78.03
2019-05-12T13:55:39.336Z,78.37
2019-05-12T13:58:05.753Z,78.69
2019-05-12T14:00:33.602Z,78.81
2019-05-12T14:03:07.142Z,78.51
2019-05-12T14:05:29.018Z,78.18
2019-05-12T14:07:57.349Z,78.11
2019-05-12T14:10:24.991Z,78.54
2019-05-12T14:12:53.906Z,79.45
2019-05-12T14:15:20.154Z,78.78
2019-05-12T14:17:46.802Z,78.38
2019-05-12T14:20:15.952Z,78.38
2019-05-12T14:22:44.555Z,78.24
2019-05-12T14:25:10.621Z,78.22
2019-05-12T14:27:37.371Z,78.19
2019-05-12T14:30:09.872Z,78.21
2019-05-12T14:32:33.605Z,78.37
2019-05-12T14:35:00.807Z,77.53
2019-05-12T14:37:27.766Z,77.43
2019-05-12T14:39:54.400Z,77.88
2019-05-12T14:42:26.020Z,78.17
2019-05-12T14:44:55.814Z,77.36
2019-05-12T14:47:28.318Z,78.17
2019-05-12T14:50:03.788Z,78.42
2019-05-12T14:52:35.784Z,77.36
2019-05-12T14:55:03.420Z,77.13
2019-05-12T14:57:40.854Z,76.58
2019-05-12T15:00:11.282Z,77.28
2019-05-12T15:02:43.708Z,77.16
2019-05-12T15:05:17.866Z,77.83
2019-05-12T15:07:51.275Z,76.99
2019-05-12T15:10:23.469Z,77.65
2019-05-12T15:12:56.762Z,76.78
2019-05-12T15:15:24.295Z,77.37
2019-05-12T15:18:03.084Z,77.60
2019-05-12T15:20:33.736Z,77.47
2019-05-12T15:23:00.439Z,77.94
2019-05-12T15:25:46.560Z,77.98
2019-05-12T15:28:14.531Z,77.43
2019-05-12T15:30:48.403Z,78.14
2019-05-12T15:33:15.015Z,77.91
2019-05-12T15:35:43.846Z,77.33
2019-05-12T15:38:20.078Z,78.05
2019-05-12T15:40:46.810Z,77.92
2019-05-12T15:45:55.409Z,79.16
2019-05-12T15:48:28.046Z,79.00
2019-05-12T15:50:59.525Z,77.56
2019-05-12T15:53:29.606Z,77.96
2019-05-12T15:55:56.335Z,77.97
2019-05-12T15:58:24.777Z,77.92
2019-05-12T16:01:01.335Z,78.06
2019-05-12T16:03:28.029Z,78.50
2019-05-12T16:05:54.755Z,78.64
2019-05-12T16:08:21.432Z,78.77
2019-05-12T16:10:48.154Z,78.62
2019-05-12T16:13:15.844Z,78.48
2019-05-12T16:15:57.616Z,79.02
2019-05-12T16:18:26.662Z,79.08
2019-05-12T16:21:05.155Z,79.18
2019-05-12T16:23:34.657Z,79.20
2019-05-12T16:26:06.634Z,79.39
2019-05-12T16:28:40.314Z,79.50
2019-05-12T16:31:08.651Z,79.63
2019-05-12T16:33:45.415Z,79.68
2019-05-12T16:36:14.429Z,79.79
2019-05-12T16:38:50.084Z,79.50
2019-05-12T16:41:26.236Z,79.68
2019-05-12T16:43:57.036Z,79.51
2019-05-12T16:46:23.652Z,79.96
2019-05-12T16:48:54.517Z,80.00
2019-05-12T16:51:25.444Z,79.88
2019-05-12T16:53:53.897Z,79.91
2019-05-12T16:56:29.726Z,80.01
2019-05-12T16:59:07.256Z,80.10
2019-05-12T17:01:37.410Z,79.93
2019-05-12T17:04:04.432Z,80.21
2019-05-12T17:06:35.153Z,81.13
2019-05-12T17:09:09.465Z,81.69
2019-05-12T17:11:37.452Z,82.25
2019-05-12T17:14:10.672Z,81.21
2019-05-12T17:16:41.706Z,80.00
2019-05-12T17:19:15.777Z,80.32
2019-05-12T17:21:44.138Z,79.14
2019-05-12T17:24:23.728Z,78.95
2019-05-12T17:26:55.837Z,78.94
2019-05-12T17:29:24.205Z,78.39
2019-05-12T17:32:03.963Z,79.66
2019-05-12T17:34:40.283Z,80.74
2019-05-12T17:37:11.145Z,79.53
2019-05-12T17:39:39.202Z,79.76
2019-05-12T17:42:21.191Z,79.44
2019-05-12T17:44:47.923Z,79.39
2019-05-12T17:47:21.384Z,79.89
2019-05-12T17:49:49.671Z,79.68
2019-05-12T17:52:18.560Z,79.56
2019-05-12T17:54:57.949Z,79.97
2019-05-12T17:57:29.573Z,80.39
2019-05-12T17:59:59.894Z,80.55
2019-05-12T18:02:31.412Z,80.48
2019-05-12T18:05:01.122Z,80.82
2019-05-12T18:07:34.257Z,81.26
2019-05-12T18:10:08.289Z,80.89
2019-05-12T18:12:41.619Z,81.13
2019-05-12T18:15:15.063Z,80.77
2019-05-12T18:17:50.009Z,81.00
2019-05-12T18:20:31.255Z,80.79
2019-05-12T18:23:04.375Z,80.87
2019-05-12T18:25:37.267Z,80.66
2019-05-12T18:28:03.936Z,80.94
2019-05-12T18:30:30.659Z,81.15
2019-05-12T18:33:04.286Z,81.22
2019-05-12T18:35:31.784Z,81.08
2019-05-12T18:37:58.529Z,81.39
2019-05-12T18:40:28.031Z,81.30
2019-05-12T18:43:00.576Z,81.38
2019-05-12T18:45:27.230Z,81.59
2019-05-12T18:47:54.014Z,81.52
2019-05-12T18:50:26.318Z,81.49
2019-05-12T18:55:55.270Z,81.08
2019-05-12T18:58:30.361Z,81.09
2019-05-12T19:00:56.821Z,81.20
2019-05-12T19:03:25.377Z,81.13
2019-05-12T19:05:58.662Z,81.41
2019-05-12T19:08:25.299Z,81.19
2019-05-12T19:10:52.014Z,81.19
2019-05-12T19:13:18.765Z,80.95
2019-05-12T19:15:45.493Z,80.90
2019-05-12T19:18:17.888Z,80.73
2019-05-12T19:20:48.220Z,80.59
2019-05-12T19:23:26.891Z,80.61
2019-05-12T19:25:57.554Z,80.82
2019-05-12T19:28:24.288Z,80.82
2019-05-12T19:30:50.919Z,80.93
2019-05-12T19:33:17.620Z,80.98
2019-05-12T19:35:44.248Z,81.15
2019-05-12T19:38:13.371Z,81.11
2019-05-12T19:40:54.319Z,80.88
2019-05-12T19:43:20.260Z,80.69
2019-05-12T19:45:46.922Z,80.91
2019-05-12T19:48:24.038Z,80.93
2019-05-12T19:50:56.559Z,81.17
2019-05-12T19:53:26.970Z,81.48
2019-05-12T19:55:53.709Z,81.41
2019-05-12T19:58:20.311Z,81.40
2019-05-12T20:00:47.022Z,81.58
2019-05-12T20:03:14.053Z,81.65
2019-05-12T20:05:53.855Z,81.70
2019-05-12T20:08:27.117Z,81.89
2019-05-12T20:10:54.196Z,82.01
2019-05-12T20:13:29.666Z,82.06
2019-05-12T20:16:03.930Z,82.12
2019-05-12T20:18:34.343Z,82.22
2019-05-12T20:21:05.662Z,82.18
2019-05-12T20:23:33.443Z,82.24
2019-05-12T20:26:07.616Z,82.10
2019-05-12T20:28:34.700Z,82.19
2019-05-12T20:31:09.485Z,82.08
2019-05-12T20:33:36.259Z,82.35
2019-05-12T20:36:04.111Z,82.27
2019-05-12T20:38:44.207Z,82.28
2019-05-12T20:41:23.840Z,82.50
2019-05-12T20:43:55.309Z,82.41
2019-05-12T20:46:25.851Z,82.30
2019-05-12T20:49:01.282Z,82.56
2019-05-12T20:51:35.207Z,82.17
2019-05-12T20:54:05.512Z,82.28
2019-05-12T20:56:37.022Z,82.50
2019-05-12T20:59:03.831Z,82.35
2019-05-12T21:01:30.564Z,82.51
2019-05-12T21:03:57.207Z,82.44
2019-05-12T21:06:23.859Z,82.48
2019-05-12T21:08:53.453Z,82.57
2019-05-12T21:11:25.345Z,82.62
2019-05-12T21:13:54.404Z,82.58
2019-05-12T21:16:34.632Z,82.61
2019-05-12T21:19:09.964Z,82.74
2019-05-12T21:21:38.658Z,82.70
2019-05-12T21:24:15.363Z,82.53
2019-05-12T21:26:43.890Z,82.55
2019-05-12T21:29:19.075Z,82.64
2019-05-12T21:31:53.173Z,82.49
2019-05-12T21:34:29.845Z,82.54
2019-05-12T21:36:59.098Z,82.59
2019-05-12T21:39:33.445Z,82.42
2019-05-12T21:42:06.433Z,82.44
2019-05-12T21:44:33.089Z,82.48
2019-05-12T21:47:07.743Z,82.28
2019-05-12T21:49:34.478Z,82.38
2019-05-12T21:52:05.848Z,82.47
2019-05-12T21:54:39.934Z,82.73
2019-05-12T21:57:19.033Z,82.73
2019-05-12T21:59:49.594Z,82.68
2019-05-12T22:05:13.923Z,82.25
2019-05-12T22:07:45.970Z,82.54
2019-05-12T22:10:15.323Z,82.67
2019-05-12T22:12:47.941Z,82.78
2019-05-12T22:15:21.048Z,82.78
2019-05-12T22:18:13.721Z,82.93
2019-05-12T22:20:40.415Z,82.81
2019-05-12T22:23:11.518Z,82.54
2019-05-12T22:25:49.068Z,82.46
2019-05-12T22:28:20.237Z,82.62
2019-05-12T22:30:46.855Z,82.78
2019-05-12T22:33:13.938Z,82.86
2019-05-12T22:36:01.878Z,82.91
2019-05-12T22:38:24.780Z,82.91
2019-05-12T22:40:59.747Z,82.57
2019-05-12T22:43:40.728Z,82.72
2019-05-12T22:46:08.342Z,82.59
2019-05-12T22:48:38.278Z,82.88
2019-05-12T22:51:21.128Z,82.63
2019-05-12T22:53:48.185Z,82.92
2019-05-12T22:56:18.012Z,82.92
2019-05-12T22:58:51.990Z,83.01
2019-05-12T23:01:34.621Z,82.90
2019-05-12T23:04:03.844Z,82.68
2019-05-12T23:06:42.316Z,82.49
2019-05-12T23:09:12.363Z,82.67
2019-05-12T23:11:46.326Z,82.76
2019-05-12T23:14:20.998Z,82.68
2019-05-12T23:16:48.104Z,82.56
2019-05-12T23:19:15.080Z,82.50
2019-05-12T23:24:39.194Z,82.62
2019-05-12T23:27:08.925Z,82.71
2019-05-12T23:29:44.372Z,82.52
2019-05-12T23:32:17.372Z,82.47
2019-05-12T23:34:45.078Z,82.49
2019-05-12T23:37:19.086Z,82.50
2019-05-12T23:39:45.696Z,82.38
2019-05-12T23:42:13.588Z,82.31
2019-05-12T23:44:50.710Z,82.39
2019-05-12T23:47:17.323Z,82.36
2019-05-12T23:49:44.482Z,82.28
2019-05-12T23:52:18.392Z,82.12
2019-05-12T23:54:44.988Z,81.60
2019-05-12T23:57:13.623Z,81.86
2019-05-12T23:59:46.100Z,81.77
